Time;durP1;ratioP1;P1;durP2;ratioP2;P2;SDS_P1;SDS_P2;PMS_P1;PMS_P2;Temp;Humidity;BMP_temperature;BMP_pressure;BME280_temperature;BME280_humidity;BME280_pressure;Samples;Min_cycle;Max_cycle;Signal;HPM_P1;HPM_P2
2023/10/21 00:01:22;;;;;;;;;;;;;;;6.98;100.00;98476.28;5018711;28;20010;-70
2023/10/21 00:03:50;;;;;;;;;;;;;;;6.97;100.00;98488.50;5002777;28;20354;-70
2023/10/21 00:06:17;;;;;;;;;;;;;;;6.97;100.00;98492.91;4997755;28;20333;-70
2023/10/21 00:08:44;;;;;;;;;;;;;;;6.97;100.00;98504.22;5010603;28;20006;-71
2023/10/21 00:11:12;;;;;;;;;;;;;;;6.95;100.00;98505.31;4998902;28;19988;-71
2023/10/21 00:13:39;;;;;;;;;;;;;;;7.02;100.00;98496.00;5004157;28;19948;-69
2023/10/21 00:16:06;;;;;;;;;;;;;;;7.04;100.00;98510.66;5018568;28;19960;-70
2023/10/21 00:18:34;;;;;;;;;;;;;;;7.03;100.00;98514.22;5004227;28;19932;-71
2023/10/21 00:21:01;;;;;;;;;;;;;;;7.05;100.00;98516.72;4997733;28;20385;-69
2023/10/21 00:23:29;;;;;;;;;;;;;;;7.02;100.00;98517.75;5017501;28;20278;-71
2023/10/21 00:26:00;;;;;;;;;;;;;;;7.02;100.00;98509.91;5004430;28;20571;-71
2023/10/21 00:28:27;;;;;;;;;;;;;;;7.04;100.00;98504.59;5001749;28;20340;-69
2023/10/21 00:30:54;;;;;;;;;;;;;;;7.03;100.00;98509.00;5016901;28;19930;-71
2023/10/21 00:33:21;;;;;;;;;;;;;;;7.05;100.00;98509.69;4999980;28;19926;-71
2023/10/21 00:35:49;;;;;;;;;;;;;;;7.06;100.00;98495.66;5002480;28;20003;-70
2023/10/21 00:38:16;;;;;;;;;;;;;;;7.04;100.00;98483.66;5002140;28;19929;-70
2023/10/21 00:40:50;;;;;;;;;;;;;;;7.04;100.00;98481.03;5000497;28;19987;-70
2023/10/21 00:43:34;;;;;;;;;;;;;;;7.01;100.00;98486.50;5004622;28;19929;-73
2023/10/21 00:46:02;;;;;;;;;;;;;;;6.99;100.00;98489.25;5001777;28;19922;-72
2023/10/21 00:48:30;;;;;;;;;;;;;;;6.98;100.00;98500.66;4990130;28;20467;-71
2023/10/21 00:50:57;;;;;;;;;;;;;;;7.01;100.00;98496.97;4987301;28;19964;-74
2023/10/21 00:53:26;;;;;;;;;;;;;;;7.01;100.00;98508.25;4986464;28;19983;-69
2023/10/21 00:55:53;;;;;;;;;;;;;;;7.03;100.00;98518.63;5002074;28;19969;-71
2023/10/21 00:58:21;;;;;;;;;;;;;;;7.02;100.00;98517.75;5005331;28;20026;-71
2023/10/21 01:00:54;;;;;;;;;;;;;;;7.01;100.00;98515.28;5008490;28;19969;-70
2023/10/21 01:03:24;;;;;;;;;;;;;;;7.02;100.00;98522.16;5018399;28;20253;-70
2023/10/21 01:05:54;;;;;;;;;;;;;;;7.01;100.00;98503.03;5021101;28;19953;-72
2023/10/21 01:08:21;;;;;;;;;;;;;;;7.04;100.00;98507.19;5018783;28;19979;-71
2023/10/21 01:10:48;;;;;;;;;;;;;;;7.03;100.00;98516.00;4992185;28;19969;-70
2023/10/21 01:13:15;;;;;;;;;;;;;;;7.07;100.00;98525.28;5015328;28;19976;-71
2023/10/21 01:15:43;;;;;;;;;;;;;;;7.05;100.00;98530.63;5010326;28;19925;-71
2023/10/21 01:18:10;;;;;;;;;;;;;;;7.08;100.00;98537.41;5008025;28;20047;-72
2023/10/21 01:20:41;;;;;;;;;;;;;;;7.09;100.00;98528.59;5004276;28;20373;-70
2023/10/21 01:23:14;;;;;;;;;;;;;;;7.07;100.00;98539.19;4992238;28;19921;-70
2023/10/21 01:25:41;;;;;;;;;;;;;;;7.09;100.00;98552.16;5005367;28;20283;-70
2023/10/21 01:28:34;;;;;;;;;;;;;;;7.11;100.00;98550.22;5009511;28;20012;-71
2023/10/21 01:31:02;;;;;;;;;;;;;;;7.11;100.00;98531.91;5023497;28;19949;-72
2023/10/21 01:33:29;;;;;;;;;;;;;;;7.15;100.00;98524.66;5009091;28;19929;-70
2023/10/21 01:35:56;;;;;;;;;;;;;;;7.17;100.00;98515.75;4991808;28;19979;-70
2023/10/21 01:38:24;;;;;;;;;;;;;;;7.19;100.00;98526.09;5009690;28;20016;-71
2023/10/21 01:40:51;;;;;;;;;;;;;;;7.18;100.00;98527.06;5004897;28;19964;-75
2023/10/21 01:43:20;;;;;;;;;;;;;;;7.18;100.00;98530.50;5005365;28;19960;-75
2023/10/21 01:45:47;;;;;;;;;;;;;;;7.20;100.00;98535.59;5011606;28;20388;-71
2023/10/21 01:48:17;;;;;;;;;;;;;;;7.21;100.00;98537.28;5007564;28;19929;-71
2023/10/21 01:50:44;;;;;;;;;;;;;;;7.23;100.00;98543.22;5008297;28;19956;-69
2023/10/21 01:53:11;;;;;;;;;;;;;;;7.23;100.00;98535.38;5007718;28;19926;-71
2023/10/21 01:55:38;;;;;;;;;;;;;;;7.25;100.00;98528.22;5007237;28;20278;-70
2023/10/21 01:58:06;;;;;;;;;;;;;;;7.23;100.00;98519.66;4987944;28;19940;-70
2023/10/21 02:00:34;;;;;;;;;;;;;;;7.23;100.00;98528.34;5010728;28;19929;-70
2023/10/21 02:03:02;;;;;;;;;;;;;;;7.24;100.00;98523.94;5025164;28;19929;-71
2023/10/21 02:05:30;;;;;;;;;;;;;;;7.27;100.00;98521.09;5007432;28;19952;-71
2023/10/21 02:07:57;;;;;;;;;;;;;;;7.27;100.00;98521.91;5007705;28;19965;-70
2023/10/21 02:10:25;;;;;;;;;;;;;;;7.28;100.00;98515.72;5003483;28;19964;-70
2023/10/21 02:12:52;;;;;;;;;;;;;;;7.31;100.00;98520.72;5007234;28;19964;-69
2023/10/21 02:15:19;;;;;;;;;;;;;;;7.31;100.00;98525.97;5003878;28;19929;-70
2023/10/21 02:17:46;;;;;;;;;;;;;;;7.32;100.00;98537.25;5009468;28;19925;-70
2023/10/21 02:20:14;;;;;;;;;;;;;;;7.32;100.00;98547.72;4987286;28;20398;-72
2023/10/21 02:22:41;;;;;;;;;;;;;;;7.33;100.00;98544.16;5020640;28;20834;-72
2023/10/21 02:25:11;;;;;;;;;;;;;;;7.29;100.00;98547.97;5003433;28;19922;-71
2023/10/21 02:27:44;;;;;;;;;;;;;;;7.36;100.00;98547.38;5007975;28;20335;-72
2023/10/21 02:30:13;;;;;;;;;;;;;;;7.39;100.00;98550.72;5005163;28;20431;-72
2023/10/21 02:32:46;;;;;;;;;;;;;;;7.37;100.00;98545.56;5007559;28;20012;-71
2023/10/21 02:35:19;;;;;;;;;;;;;;;7.40;100.00;98553.19;5023185;28;19929;-72
2023/10/21 02:37:54;;;;;;;;;;;;;;;7.40;100.00;98566.28;5007634;28;20407;-71
2023/10/21 02:40:27;;;;;;;;;;;;;;;7.40;100.00;98566.28;5008495;28;20557;-72
2023/10/21 02:42:56;;;;;;;;;;;;;;;7.42;100.00;98572.22;5007056;28;19921;-71
2023/10/21 02:45:27;;;;;;;;;;;;;;;7.41;100.00;98567.13;5004036;28;19921;-71
2023/10/21 02:47:55;;;;;;;;;;;;;;;7.41;100.00;98574.97;5009005;28;19997;-72
2023/10/21 02:50:23;;;;;;;;;;;;;;;7.38;100.00;98585.66;5020086;28;20032;-71
2023/10/21 02:52:51;;;;;;;;;;;;;;;7.40;100.00;98589.00;5006683;28;20067;-72
2023/10/21 02:55:18;;;;;;;;;;;;;;;7.38;100.00;98602.19;4993587;28;19969;-73
2023/10/21 02:57:53;;;;;;;;;;;;;;;7.36;100.00;98604.94;4999357;28;20296;-72
2023/10/21 03:00:23;;;;;;;;;;;;;;;7.40;100.00;98615.19;5010672;28;19995;-72
2023/10/21 03:02:53;;;;;;;;;;;;;;;7.41;100.00;98601.97;5010230;28;19960;-75
2023/10/21 03:05:26;;;;;;;;;;;;;;;7.42;100.00;98608.03;5022254;28;19950;-74
2023/10/21 03:07:55;;;;;;;;;;;;;;;7.43;100.00;98610.56;5006647;28;20051;-73
2023/10/21 03:10:22;;;;;;;;;;;;;;;7.43;100.00;98604.47;5005760;28;19973;-74
2023/10/21 03:12:52;;;;;;;;;;;;;;;7.43;100.00;98612.31;5009557;28;19921;-74
2023/10/21 03:15:19;;;;;;;;;;;;;;;7.42;100.00;98614.09;5009880;28;19941;-73
2023/10/21 03:17:49;;;;;;;;;;;;;;;7.42;100.00;98602.81;5008908;28;19928;-75
2023/10/21 03:20:16;;;;;;;;;;;;;;;7.41;100.00;98604.59;5002970;28;19999;-74
2023/10/21 03:22:44;;;;;;;;;;;;;;;7.41;100.00;98601.97;5023338;28;20352;-74
2023/10/21 03:25:11;;;;;;;;;;;;;;;7.42;100.00;98608.03;5007697;28;19955;-74
2023/10/21 03:27:39;;;;;;;;;;;;;;;7.44;100.00;98606.97;5003352;28;19948;-75
2023/10/21 03:30:07;;;;;;;;;;;;;;;7.43;100.00;98613.19;5005920;28;19929;-75
2023/10/21 03:32:35;;;;;;;;;;;;;;;7.44;100.00;98619.25;5018806;28;19988;-73
2023/10/21 03:35:04;;;;;;;;;;;;;;;7.43;100.00;98618.41;4990845;28;19929;-75
2023/10/21 03:37:34;;;;;;;;;;;;;;;7.44;100.00;98612.22;5005673;28;20032;-76
2023/10/21 03:40:01;;;;;;;;;;;;;;;7.47;100.00;98632.06;5008218;28;20044;-72
2023/10/21 03:42:30;;;;;;;;;;;;;;;7.47;100.00;98625.03;5002307;28;19991;-71
2023/10/21 03:45:02;;;;;;;;;;;;;;;7.48;100.00;98626.72;5005682;28;20011;-72
2023/10/21 03:47:29;;;;;;;;;;;;;;;7.46;100.00;98625.19;5007365;28;20407;-71
2023/10/21 03:49:57;;;;;;;;;;;;;;;7.44;100.00;98624.47;5002944;28;19975;-72
2023/10/21 03:52:25;;;;;;;;;;;;;;;7.45;100.00;98629.59;5018512;28;19921;-71
2023/10/21 03:54:53;;;;;;;;;;;;;;;7.45;100.00;98628.75;5002845;28;19929;-70
2023/10/21 03:57:21;;;;;;;;;;;;;;;7.45;100.00;98619.13;5018997;28;21652;-72
2023/10/21 03:59:49;;;;;;;;;;;;;;;7.48;100.00;98618.88;5004069;28;20011;-72
2023/10/21 04:02:16;;;;;;;;;;;;;;;7.44;100.00;98620.06;4989932;28;19925;-72
2023/10/21 04:04:44;;;;;;;;;;;;;;;7.45;100.00;98615.66;5006000;28;20335;-72
2023/10/21 04:07:11;;;;;;;;;;;;;;;7.42;100.00;98621.13;5005117;28;19922;-74
2023/10/21 04:09:38;;;;;;;;;;;;;;;7.41;100.00;98622.09;5007108;28;20294;-74
2023/10/21 04:12:05;;;;;;;;;;;;;;;7.43;100.00;98610.56;5008141;28;19979;-73
2023/10/21 04:14:32;;;;;;;;;;;;;;;7.44;100.00;98620.06;5009099;28;20293;-72
2023/10/21 04:16:59;;;;;;;;;;;;;;;7.43;100.00;98615.78;5007148;28;19987;-72
2023/10/21 04:19:27;;;;;;;;;;;;;;;7.45;100.00;98606.03;5007276;28;20367;-72
2023/10/21 04:21:54;;;;;;;;;;;;;;;7.44;100.00;98606.97;5005985;28;20887;-73
2023/10/21 04:24:21;;;;;;;;;;;;;;;7.45;100.00;98602.56;4984914;28;19928;-72
2023/10/21 04:26:48;;;;;;;;;;;;;;;7.44;100.00;98614.84;4997565;28;20483;-73
2023/10/21 04:29:16;;;;;;;;;;;;;;;7.44;100.00;98614.84;4988555;28;20355;-73
2023/10/21 04:31:43;;;;;;;;;;;;;;;7.45;100.00;98629.59;5005688;28;19953;-73
2023/10/21 04:34:10;;;;;;;;;;;;;;;7.47;100.00;98639.94;4988232;28;19928;-73
2023/10/21 04:36:37;;;;;;;;;;;;;;;7.48;100.00;98634.59;5004470;28;19991;-73
2023/10/21 04:39:07;;;;;;;;;;;;;;;7.50;100.00;98631.84;5002500;28;20021;-72
2023/10/21 04:41:34;;;;;;;;;;;;;;;7.51;100.00;98620.41;5004057;28;19995;-72
2023/10/21 04:44:01;;;;;;;;;;;;;;;7.51;100.00;98631.72;5004687;28;20446;-72
2023/10/21 04:46:29;;;;;;;;;;;;;;;7.52;100.00;98640.41;5020202;28;19999;-71
2023/10/21 04:48:56;;;;;;;;;;;;;;;7.50;100.00;98652.78;4989912;28;19968;-73
2023/10/21 04:51:24;;;;;;;;;;;;;;;7.49;100.00;98640.66;5007351;28;20007;-73
2023/10/21 04:53:51;;;;;;;;;;;;;;;7.51;100.00;98639.56;5005639;28;19921;-72
2023/10/21 04:56:18;;;;;;;;;;;;;;;7.51;100.00;98634.34;5001254;28;19922;-73
2023/10/21 04:58:45;;;;;;;;;;;;;;;7.50;100.00;98637.06;5008955;28;20011;-74
2023/10/21 05:01:16;;;;;;;;;;;;;;;7.50;100.00;98643.16;5012735;28;20027;-72
2023/10/21 05:03:44;;;;;;;;;;;;;;;7.49;100.00;98662.44;5005400;28;19967;-71
2023/10/21 05:06:12;;;;;;;;;;;;;;;7.50;100.00;98658.84;5004166;28;20277;-72
2023/10/21 05:08:39;;;;;;;;;;;;;;;7.51;100.00;98659.69;5010475;28;20010;-72
2023/10/21 05:11:07;;;;;;;;;;;;;;;7.50;100.00;98642.31;5004250;28;19929;-72
2023/10/21 05:13:34;;;;;;;;;;;;;;;7.51;100.00;98642.19;5003619;28;19925;-72
2023/10/21 05:16:01;;;;;;;;;;;;;;;7.51;100.00;98651.81;5021778;28;19926;-71
2023/10/21 05:18:28;;;;;;;;;;;;;;;7.53;100.00;98663.03;5002621;28;20008;-73
2023/10/21 05:20:56;;;;;;;;;;;;;;;7.52;100.00;98651.72;5026182;28;19983;-72
2023/10/21 05:23:23;;;;;;;;;;;;;;;7.55;100.00;98641.00;5004001;28;19929;-73
2023/10/21 05:25:51;;;;;;;;;;;;;;;7.55;100.00;98640.16;5006349;28;20021;-72
2023/10/21 05:28:18;;;;;;;;;;;;;;;7.52;100.00;98650.88;5021067;28;19964;-72
2023/10/21 05:30:45;;;;;;;;;;;;;;;7.49;100.00;98666.84;5005969;28;19971;-72
2023/10/21 05:33:13;;;;;;;;;;;;;;;7.48;100.00;98678.28;5006507;28;19990;-73
2023/10/21 05:35:40;;;;;;;;;;;;;;;7.48;100.00;98679.09;5018053;28;19973;-74
2023/10/21 05:38:08;;;;;;;;;;;;;;;7.50;100.00;98684.22;5005490;28;19952;-70
2023/10/21 05:40:35;;;;;;;;;;;;;;;7.53;100.00;98676.94;5020273;28;19922;-73
2023/10/21 05:43:02;;;;;;;;;;;;;;;7.56;100.00;98662.78;5002921;28;20032;-72
2023/10/21 05:45:30;;;;;;;;;;;;;;;7.56;100.00;98654.91;4988487;28;19964;-73
2023/10/21 05:47:59;;;;;;;;;;;;;;;7.51;100.00;98668.38;5006220;28;19935;-74
2023/10/21 05:50:26;;;;;;;;;;;;;;;7.54;100.00;98675.16;5003550;28;19930;-73
2023/10/21 05:52:53;;;;;;;;;;;;;;;7.55;100.00;98682.06;5001416;28;20035;-72
2023/10/21 05:55:21;;;;;;;;;;;;;;;7.57;100.00;98680.19;5005514;28;19983;-71
2023/10/21 05:57:48;;;;;;;;;;;;;;;7.53;100.00;98690.03;5002059;28;19968;-72
2023/10/21 06:00:15;;;;;;;;;;;;;;;7.57;100.00;98690.66;4994828;28;19999;-72
2023/10/21 06:02:42;;;;;;;;;;;;;;;7.59;100.00;98692.19;5023724;28;19956;-73
2023/10/21 06:05:09;;;;;;;;;;;;;;;7.59;100.00;98702.66;5007583;28;19937;-70
2023/10/21 06:07:37;;;;;;;;;;;;;;;7.62;100.00;98712.06;5005672;28;20431;-74
2023/10/21 06:10:04;;;;;;;;;;;;;;;7.66;100.00;98710.88;5024087;28;19929;-74
2023/10/21 06:12:32;;;;;;;;;;;;;;;7.67;100.00;98717.78;5007080;28;19971;-74
2023/10/21 06:15:00;;;;;;;;;;;;;;;7.69;100.00;98723.72;5008489;28;19922;-74
2023/10/21 06:17:29;;;;;;;;;;;;;;;7.73;100.00;98724.31;5021886;28;21718;-72
2023/10/21 06:19:58;;;;;;;;;;;;;;;7.72;100.00;98730.53;4989050;28;20004;-73
2023/10/21 06:22:26;;;;;;;;;;;;;;;7.77;100.00;98721.34;4990815;28;20551;-74
2023/10/21 06:24:53;;;;;;;;;;;;;;;7.80;100.00;98720.28;5005236;28;19972;-74
2023/10/21 06:27:21;;;;;;;;;;;;;;;7.82;100.00;98715.75;5004665;28;19964;-72
2023/10/21 06:29:52;;;;;;;;;;;;;;;7.82;100.00;98708.72;5008423;28;19987;-72
2023/10/21 06:32:19;;;;;;;;;;;;;;;7.87;100.00;98713.59;4990694;28;19970;-73
2023/10/21 06:34:46;;;;;;;;;;;;;;;7.89;100.00;98716.13;5010631;28;19921;-75
2023/10/21 06:37:13;;;;;;;;;;;;;;;7.89;100.00;98721.38;5008105;28;20047;-72
2023/10/21 06:39:40;;;;;;;;;;;;;;;7.87;100.00;98740.63;5007548;28;19969;-73
2023/10/21 06:42:07;;;;;;;;;;;;;;;7.82;100.00;98741.94;4991015;28;19984;-74
2023/10/21 06:44:36;;;;;;;;;;;;;;;7.88;100.00;98741.50;5021984;28;19921;-75
2023/10/21 06:47:04;;;;;;;;;;;;;;;7.88;100.00;98741.50;5024511;28;19956;-74
2023/10/21 06:49:31;;;;;;;;;;;;;;;7.91;100.00;98746.47;5009699;28;19936;-74
2023/10/21 06:51:58;;;;;;;;;;;;;;;7.95;100.00;98747.91;5004968;28;19983;-72
2023/10/21 06:54:29;;;;;;;;;;;;;;;7.96;100.00;98738.25;5006695;28;19921;-73
2023/10/21 06:56:56;;;;;;;;;;;;;;;7.96;100.00;98746.09;5008586;28;20023;-73
2023/10/21 06:59:25;;;;;;;;;;;;;;;8.00;100.00;98751.00;5009779;28;19929;-73
2023/10/21 07:01:54;;;;;;;;;;;;;;;8.06;100.00;98763.63;5010506;28;20514;-74
2023/10/21 07:04:21;;;;;;;;;;;;;;;8.11;100.00;98758.84;5009242;28;19978;-74
2023/10/21 07:06:49;;;;;;;;;;;;;;;8.15;100.00;98762.09;4991323;28;19926;-75
2023/10/21 07:09:16;;;;;;;;;;;;;;;8.21;100.00;98760.75;4991139;28;20014;-72
2023/10/21 07:11:43;;;;;;;;;;;;;;;8.26;100.00;98769.91;4985156;28;19960;-75
2023/10/21 07:14:12;;;;;;;;;;;;;;;8.29;100.00;98766.22;4989536;28;20372;-75
2023/10/21 07:16:40;;;;;;;;;;;;;;;8.32;100.00;98776.47;5016282;28;19925;-74
2023/10/21 07:19:07;;;;;;;;;;;;;;;8.34;100.00;98779.81;4999339;28;20005;-72
2023/10/21 07:21:35;;;;;;;;;;;;;;;8.40;100.00;98786.38;5021895;28;19925;-73
2023/10/21 07:24:03;;;;;;;;;;;;;;;8.47;100.00;98779.72;5006015;28;19960;-73
2023/10/21 07:26:30;;;;;;;;;;;;;;;8.50;100.00;98777.66;5008131;28;20550;-74
2023/10/21 07:28:58;;;;;;;;;;;;;;;8.59;100.00;98783.94;5018856;28;19999;-74
2023/10/21 07:31:26;;;;;;;;;;;;;;;8.61;100.00;98782.88;5008128;28;19921;-74
2023/10/21 07:33:59;;;;;;;;;;;;;;;8.71;100.00;98792.63;5007514;28;19984;-75
2023/10/21 07:36:27;;;;;;;;;;;;;;;8.77;100.00;98794.75;5017474;28;19961;-75
2023/10/21 07:38:56;;;;;;;;;;;;;;;8.70;100.00;98796.22;5004317;28;19933;-74
2023/10/21 07:41:24;;;;;;;;;;;;;;;8.72;100.00;98796.91;5002787;28;19981;-74
2023/10/21 07:43:52;;;;;;;;;;;;;;;8.83;100.00;98797.72;5002137;28;20100;-74
2023/10/21 07:46:21;;;;;;;;;;;;;;;8.82;100.00;98806.53;5000567;28;19925;-70
2023/10/21 07:48:49;;;;;;;;;;;;;;;8.86;100.00;98797.47;5000586;28;20384;-73
2023/10/21 07:51:18;;;;;;;;;;;;;;;8.91;100.00;98798.88;5020902;28;19930;-73
2023/10/21 07:53:48;;;;;;;;;;;;;;;8.90;100.00;98807.72;5020937;28;19921;-71
2023/10/21 07:56:16;;;;;;;;;;;;;;;8.96;100.00;98808.06;5002424;28;20036;-73
2023/10/21 07:58:45;;;;;;;;;;;;;;;9.02;100.00;98806.72;5005423;28;20741;-72
2023/10/21 08:01:13;;;;;;;;;;;;;;;9.16;100.00;98814.31;4989848;28;20284;-72
2023/10/21 08:03:44;;;;;;;;;;;;;;;9.29;100.00;98808.88;5006159;28;19928;-72
2023/10/21 08:06:13;;;;;;;;;;;;;;;9.62;100.00;98811.31;5006227;28;20363;-71
2023/10/21 08:08:43;;;;;;;;;;;;;;;9.86;100.00;98810.22;5001379;28;20016;-71
2023/10/21 08:11:10;;;;;;;;;;;;;;;10.07;100.00;98812.81;5002904;28;19953;-72
2023/10/21 08:13:37;;;;;;;;;;;;;;;10.05;100.00;98817.38;4985480;28;19925;-73
2023/10/21 08:16:05;;;;;;;;;;;;;;;10.01;100.00;98827.31;5018020;28;20013;-71
2023/10/21 08:18:32;;;;;;;;;;;;;;;9.96;100.00;98826.06;5002133;28;19922;-71
2023/10/21 08:21:08;;;;;;;;;;;;;;;9.96;100.00;98829.50;5003925;28;20020;-70
2023/10/21 08:23:41;;;;;;;;;;;;;;;10.06;100.00;98838.28;4990947;28;20384;-71
2023/10/21 08:26:08;;;;;;;;;;;;;;;10.12;100.00;98835.13;5021414;28;19925;-71
2023/10/21 08:28:36;;;;;;;;;;;;;;;10.09;100.00;98831.94;5008739;28;19970;-71
2023/10/21 08:31:08;;;;;;;;;;;;;;;10.21;100.00;98832.66;4989835;28;19921;-71
2023/10/21 08:33:36;;;;;;;;;;;;;;;10.26;100.00;98835.75;5008257;28;19928;-73
2023/10/21 08:36:13;;;;;;;;;;;;;;;10.29;100.00;98846.84;5008837;28;19988;-73
2023/10/21 08:38:41;;;;;;;;;;;;;;;10.45;100.00;98848.19;5005508;28;19925;-70
2023/10/21 08:41:17;;;;;;;;;;;;;;;10.45;100.00;98859.53;4989209;28;19933;-72
2023/10/21 08:43:48;;;;;;;;;;;;;;;10.48;100.00;98856.63;5005723;28;20024;-71
2023/10/21 08:46:18;;;;;;;;;;;;;;;10.55;100.00;98856.94;5012041;28;20065;-70
2023/10/21 08:48:47;;;;;;;;;;;;;;;10.73;100.00;98860.59;5003763;28;20016;-71
2023/10/21 08:51:20;;;;;;;;;;;;;;;10.83;100.00;98852.72;5009505;28;20035;-71
2023/10/21 08:53:52;;;;;;;;;;;;;;;10.92;100.00;98869.50;5005539;28;19921;-70
2023/10/21 08:56:22;;;;;;;;;;;;;;;11.07;100.00;98871.59;4989943;28;19925;-71
2023/10/21 08:58:51;;;;;;;;;;;;;;;11.08;100.00;98869.81;5018238;28;19925;-70
2023/10/21 09:01:18;;;;;;;;;;;;;;;11.12;100.00;98882.56;5000522;28;19960;-71
2023/10/21 09:03:45;;;;;;;;;;;;;;;11.24;100.00;98880.63;5001458;28;19982;-70
2023/10/21 09:06:12;;;;;;;;;;;;;;;11.28;100.00;98884.66;5004870;28;20369;-71
2023/10/21 09:08:43;;;;;;;;;;;;;;;11.37;100.00;98880.38;5019113;28;20194;-71
2023/10/21 09:11:11;;;;;;;;;;;;;;;11.44;100.00;98885.91;5002106;28;19957;-71
2023/10/21 09:13:39;;;;;;;;;;;;;;;11.72;100.00;98882.44;5018680;28;20452;-72
2023/10/21 09:16:20;;;;;;;;;;;;;;;11.90;100.00;98879.94;5018374;28;20364;-71
2023/10/21 09:18:55;;;;;;;;;;;;;;;12.02;100.00;98886.75;5004622;28;20368;-70
2023/10/21 09:21:37;;;;;;;;;;;;;;;12.06;100.00;98889.91;4986172;28;19933;-69
2023/10/21 09:24:04;;;;;;;;;;;;;;;11.93;100.00;98892.00;4992381;28;19957;-70
2023/10/21 09:26:33;;;;;;;;;;;;;;;12.08;100.00;98903.78;5001744;28;19961;-70
2023/10/21 09:29:06;;;;;;;;;;;;;;;11.95;100.00;98906.72;5002268;28;20169;-71
2023/10/21 09:31:48;;;;;;;;;;;;;;;11.87;100.00;98902.16;5001993;28;20007;-71
2023/10/21 09:34:24;;;;;;;;;;;;;;;11.94;100.00;98905.06;5017466;28;19979;-71
2023/10/21 09:36:52;;;;;;;;;;;;;;;11.98;100.00;98906.47;5006505;28;20013;-71
2023/10/21 09:39:20;;;;;;;;;;;;;;;11.88;100.00;98908.25;5010602;28;19921;-71
2023/10/21 09:41:47;;;;;;;;;;;;;;;11.95;100.00;98916.44;5021403;28;19955;-69
2023/10/21 09:44:16;;;;;;;;;;;;;;;11.97;100.00;98920.59;5006684;28;19980;-70
2023/10/21 09:46:46;;;;;;;;;;;;;;;12.07;100.00;98912.69;5018988;28;20355;-71
2023/10/21 09:49:14;;;;;;;;;;;;;;;12.31;100.00;98920.13;5008154;28;19936;-70
2023/10/21 09:52:00;;;;;;;;;;;;;;;12.37;100.00;98932.72;5007982;28;20339;-70
2023/10/21 09:54:32;;;;;;;;;;;;;;;12.49;100.00;98921.03;5009431;28;19921;-70
2023/10/21 09:57:00;;;;;;;;;;;;;;;12.53;100.00;98924.22;4983184;28;19967;-72
2023/10/21 09:59:27;;;;;;;;;;;;;;;12.73;100.00;98924.97;5007420;28;20565;-72
2023/10/21 10:01:56;;;;;;;;;;;;;;;12.87;100.00;98927.94;5004556;28;19976;-72
2023/10/21 10:04:23;;;;;;;;;;;;;;;12.88;100.00;98936.75;4975502;28;19933;-71
2023/10/21 10:06:58;;;;;;;;;;;;;;;12.89;100.00;98941.88;5004396;28;20040;-72
2023/10/21 10:09:36;;;;;;;;;;;;;;;12.92;100.00;98938.94;4994422;28;19957;-71
2023/10/21 10:12:05;;;;;;;;;;;;;;;13.02;100.00;98936.25;5005575;28;20035;-71
2023/10/21 10:14:33;;;;;;;;;;;;;;;13.20;100.00;98938.09;5008360;28;19926;-72
2023/10/21 10:17:01;;;;;;;;;;;;;;;13.27;100.00;98947.09;4988871;28;19925;-70
2023/10/21 10:19:41;;;;;;;;;;;;;;;13.40;100.00;98944.94;4972632;28;19961;-69
2023/10/21 10:22:18;;;;;;;;;;;;;;;13.45;100.00;98947.13;5009441;28;19979;-70
2023/10/21 10:24:55;;;;;;;;;;;;;;;13.46;100.00;98943.50;5012388;28;19964;-70
2023/10/21 10:27:24;;;;;;;;;;;;;;;13.49;100.00;98945.84;5022716;28;20376;-69
2023/10/21 10:29:51;;;;;;;;;;;;;;;13.51;100.00;98949.16;5005271;28;20553;-70
2023/10/21 10:32:20;;;;;;;;;;;;;;;13.59;100.00;98951.91;5007645;28;19926;-70
2023/10/21 10:34:52;;;;;;;;;;;;;;;13.64;100.00;98952.28;5021213;28;19921;-71
2023/10/21 10:37:32;;;;;;;;;;;;;;;14.01;100.00;98954.78;5008735;28;19921;-70
2023/10/21 10:40:05;;;;;;;;;;;;;;;14.28;100.00;98953.00;4989639;28;19933;-71
2023/10/21 10:42:34;;;;;;;;;;;;;;;14.96;100.00;98958.38;5003860;28;19925;-71
2023/10/21 10:45:03;;;;;;;;;;;;;;;15.56;100.00;98952.91;4988404;28;20392;-71
2023/10/21 10:47:30;;;;;;;;;;;;;;;15.87;98.77;98958.47;5007692;28;19929;-71
2023/10/21 10:49:58;;;;;;;;;;;;;;;16.57;96.58;98973.00;5008179;28;20009;-72
2023/10/21 10:52:26;;;;;;;;;;;;;;;16.95;94.58;98974.94;5005098;28;19980;-71
2023/10/21 10:54:53;;;;;;;;;;;;;;;17.42;91.31;98967.91;5006012;28;20847;-71
2023/10/21 10:57:22;;;;;;;;;;;;;;;17.38;90.70;98972.78;4990394;28;20744;-72
2023/10/21 10:59:50;;;;;;;;;;;;;;;17.64;90.19;98985.75;5020991;28;20408;-70
2023/10/21 11:02:17;;;;;;;;;;;;;;;17.83;87.99;98987.19;5005904;28;19971;-70
2023/10/21 11:04:50;;;;;;;;;;;;;;;18.01;88.01;98986.03;5008201;28;19948;-70
2023/10/21 11:07:18;;;;;;;;;;;;;;;17.75;87.45;98997.06;5007871;28;19961;-71
2023/10/21 11:09:53;;;;;;;;;;;;;;;17.62;89.46;99001.06;5022930;28;20407;-72
2023/10/21 11:12:20;;;;;;;;;;;;;;;17.14;92.42;99015.41;5005498;28;20003;-71
2023/10/21 11:14:47;;;;;;;;;;;;;;;16.85;93.78;99016.03;5006749;28;20408;-71
2023/10/21 11:17:17;;;;;;;;;;;;;;;16.68;95.50;99021.31;5007434;28;19929;-71
2023/10/21 11:19:44;;;;;;;;;;;;;;;16.53;97.03;99019.53;5003675;28;20523;-71
2023/10/21 11:22:21;;;;;;;;;;;;;;;16.57;97.64;99019.03;5006753;28;19944;-71
2023/10/21 11:24:48;;;;;;;;;;;;;;;16.55;97.63;99028.97;5022259;28;20351;-71
2023/10/21 11:27:18;;;;;;;;;;;;;;;16.34;97.00;99024.16;4989153;28;19952;-71
2023/10/21 11:29:51;;;;;;;;;;;;;;;16.15;98.19;99025.31;4988323;28;19972;-71
2023/10/21 11:32:28;;;;;;;;;;;;;;;16.31;99.09;99032.47;5017269;28;19921;-72
2023/10/21 11:34:55;;;;;;;;;;;;;;;16.30;97.60;99049.41;4986675;28;20043;-71
2023/10/21 11:37:22;;;;;;;;;;;;;;;16.20;96.45;99056.69;5019287;28;19929;-71
2023/10/21 11:39:49;;;;;;;;;;;;;;;16.32;96.84;99058.03;4999784;28;19932;-71
2023/10/21 11:42:20;;;;;;;;;;;;;;;16.39;96.79;99055.53;5019981;28;19921;-72
2023/10/21 11:44:57;;;;;;;;;;;;;;;16.61;95.61;99065.50;5001339;28;20360;-71
2023/10/21 11:47:28;;;;;;;;;;;;;;;16.74;94.48;99069.50;5003350;28;19960;-72
2023/10/21 11:49:55;;;;;;;;;;;;;;;16.75;94.22;99069.34;5003416;28;19940;-71
2023/10/21 11:52:24;;;;;;;;;;;;;;;16.76;92.26;99072.84;5006597;28;19925;-72
2023/10/21 11:55:35;;;;;;;;;;;;;;;16.87;92.76;99083.13;5000824;28;20016;-71
2023/10/21 12:41:02;;;;;;;;;;;;;;;26.66;45.59;99165.03;5015983;28;19959;-71
2023/10/21 12:43:35;;;;;;;;;;;;;;;25.25;46.21;99153.38;5017579;28;19936;-71
2023/10/21 12:46:16;;;;;;;;;;;;;;;28.18;42.10;99158.78;5002445;28;19997;-70
2023/10/21 12:48:51;;;;;;;;;;;;;;;25.93;44.06;99167.81;5005950;28;20008;-70
2023/10/21 12:51:20;;;;;;;;;;;;;;;27.12;41.75;99158.09;5018844;28;19921;-71
2023/10/21 12:53:51;;;;;;;;;;;;;;;28.11;40.37;99174.34;5003673;28;19929;-71
2023/10/21 12:56:34;;;;;;;;;;;;;;;27.75;39.30;99175.50;5004331;28;19925;-72
2023/10/21 12:59:01;;;;;;;;;;;;;;;25.79;43.19;99177.13;5002199;28;19925;-72
2023/10/21 13:01:29;;;;;;;;;;;;;;;25.28;45.98;99179.06;5004650;28;19979;-72
2023/10/21 13:03:57;;;;;;;;;;;;;;;26.31;44.15;99186.44;5009050;28;20442;-71
2023/10/21 13:06:24;;;;;;;;;;;;;;;28.25;39.85;99183.84;4995339;28;19921;-71
2023/10/21 13:08:51;;;;;;;;;;;;;;;28.43;39.50;99201.81;5012833;28;19968;-71
2023/10/21 13:11:18;;;;;;;;;;;;;;;25.53;44.25;99203.25;5010253;28;20012;-71
2023/10/21 13:13:45;;;;;;;;;;;;;;;25.75;42.89;99215.25;5008740;28;19925;-71
2023/10/21 13:16:14;;;;;;;;;;;;;;;25.23;44.44;99193.19;5011710;28;19979;-72
2023/10/21 13:18:41;;;;;;;;;;;;;;;23.63;47.79;99211.06;5026363;28;20435;-71
2023/10/21 13:21:09;;;;;;;;;;;;;;;22.31;51.62;99213.59;5010624;28;19976;-70
2023/10/21 13:23:36;;;;;;;;;;;;;;;20.69;56.81;99224.31;5005010;28;19964;-71
2023/10/21 13:26:06;;;;;;;;;;;;;;;20.02;59.14;99221.84;5007655;28;20019;-70
2023/10/21 13:28:34;;;;;;;;;;;;;;;21.48;56.37;99219.72;5019929;28;19930;-71
2023/10/21 13:31:02;;;;;;;;;;;;;;;22.21;54.28;99227.38;5004702;28;20015;-71
2023/10/21 13:33:29;;;;;;;;;;;;;;;22.45;53.60;99247.47;5005663;28;19926;-71
2023/10/21 13:35:57;;;;;;;;;;;;;;;21.05;56.74;99237.66;5005563;28;20027;-71
2023/10/21 13:38:26;;;;;;;;;;;;;;;19.92;61.23;99244.31;5015835;28;19984;-70